createdAt,value
2023-02-14T00:00:35.345Z,4.82
2023-02-14T00:03:07.622Z,4.70
2023-02-14T00:05:37.306Z,4.50
2023-02-14T00:08:06.979Z,4.44
2023-02-14T00:10:36.645Z,4.43
2023-02-14T00:13:06.326Z,4.36
2023-02-14T00:15:33.377Z,4.38
2023-02-14T00:18:03.606Z,4.46
2023-02-14T00:20:37.044Z,4.40
2023-02-14T00:23:06.628Z,4.37
2023-02-14T00:25:36.870Z,4.39
2023-02-14T00:28:06.622Z,4.47
2023-02-14T00:30:37.356Z,4.29
2023-02-14T00:33:07.818Z,4.36
2023-02-14T00:35:42.828Z,4.21
2023-02-14T00:38:12.467Z,4.23
2023-02-14T00:40:42.652Z,4.29
2023-02-14T00:43:12.267Z,4.31
2023-02-14T00:45:41.896Z,4.26
2023-02-14T00:48:11.624Z,4.25
2023-02-14T00:50:45.858Z,4.32
2023-02-14T00:53:15.683Z,4.48
2023-02-14T00:55:47.857Z,4.58
2023-02-14T00:58:18.015Z,4.60
2023-02-14T01:00:47.638Z,4.54
2023-02-14T01:03:17.415Z,4.35
2023-02-14T01:05:50.354Z,4.37
2023-02-14T01:08:20.803Z,4.20
2023-02-14T01:10:50.575Z,4.51
2023-02-14T01:13:20.693Z,4.46
2023-02-14T01:15:52.717Z,4.46
2023-02-14T01:18:22.386Z,4.42
2023-02-14T01:20:54.603Z,4.38
2023-02-14T01:23:24.223Z,4.13
2023-02-14T01:25:53.851Z,4.12
2023-02-14T01:28:23.478Z,4.28
2023-02-14T01:30:53.135Z,3.98
2023-02-14T01:33:22.755Z,4.22
2023-02-14T01:35:54.937Z,4.21
2023-02-14T01:38:24.541Z,4.05
2023-02-14T01:40:54.156Z,4.27
2023-02-14T01:43:23.788Z,4.22
2023-02-14T01:45:53.560Z,3.96
2023-02-14T01:48:25.588Z,4.10
2023-02-14T01:50:59.009Z,4.17
2023-02-14T01:53:31.854Z,4.17
2023-02-14T01:56:06.796Z,4.14
2023-02-14T01:58:40.415Z,4.17
2023-02-14T02:01:07.620Z,4.01
2023-02-14T02:03:41.847Z,4.10
2023-02-14T02:06:19.291Z,3.62
2023-02-14T02:08:58.611Z,3.64
2023-02-14T02:11:28.614Z,3.96
2023-02-14T02:13:58.396Z,3.98
2023-02-14T02:16:41.947Z,3.95
2023-02-14T02:19:33.602Z,3.93
2023-02-14T02:22:23.956Z,3.94
2023-02-14T02:25:03.245Z,3.85
2023-02-14T02:27:51.266Z,3.78
2023-02-14T02:30:47.058Z,3.55
2023-02-14T02:33:58.115Z,3.49
2023-02-14T02:37:10.891Z,3.40
2023-02-14T02:39:52.992Z,3.43
2023-02-14T02:42:30.331Z,3.49
2023-02-14T02:45:09.559Z,3.56
2023-02-14T02:47:47.360Z,3.57
2023-02-14T02:50:37.983Z,3.51
2023-02-14T02:53:19.144Z,3.38
2023-02-14T02:56:07.613Z,3.56
2023-02-14T02:58:40.514Z,3.59
2023-02-14T03:01:14.386Z,3.62
2023-02-14T03:03:59.372Z,3.49
2023-02-14T03:06:29.179Z,3.48
2023-02-14T03:09:11.969Z,3.48
2023-02-14T03:11:51.778Z,3.40
2023-02-14T03:14:25.139Z,3.29
2023-02-14T03:17:06.523Z,3.42
2023-02-14T03:20:08.135Z,3.30
2023-02-14T03:22:48.505Z,3.29
2023-02-14T03:25:31.120Z,3.45
2023-02-14T03:28:09.137Z,3.44
2023-02-14T03:30:48.368Z,3.51
2023-02-14T03:33:25.443Z,3.42
2023-02-14T03:36:02.002Z,3.39
2023-02-14T03:38:38.623Z,3.18
2023-02-14T03:41:16.013Z,3.25
2023-02-14T03:43:50.248Z,2.90
2023-02-14T03:46:25.593Z,3.09
2023-02-14T03:48:59.820Z,3.00
2023-02-14T03:51:34.356Z,2.90
2023-02-14T03:54:05.970Z,3.03
2023-02-14T03:56:42.798Z,2.93
2023-02-14T03:59:17.349Z,2.74
2023-02-14T04:01:53.262Z,3.00
2023-02-14T04:04:26.305Z,2.94
2023-02-14T04:06:56.388Z,2.90
2023-02-14T04:09:26.108Z,3.00
2023-02-14T04:11:58.339Z,2.86
2023-02-14T04:14:29.579Z,2.81
2023-02-14T04:17:11.789Z,2.83
2023-02-14T04:19:41.398Z,2.83
2023-02-14T04:22:11.132Z,3.01
2023-02-14T04:24:40.761Z,2.72
2023-02-14T04:27:13.676Z,2.96
2023-02-14T04:29:45.726Z,2.81
2023-02-14T04:32:17.667Z,2.74
2023-02-14T04:34:47.709Z,2.73
2023-02-14T04:37:19.346Z,2.84
2023-02-14T04:39:49.167Z,2.76
2023-02-14T04:42:21.413Z,2.82
2023-02-14T04:44:51.065Z,2.61
2023-02-14T04:47:20.932Z,2.68
2023-02-14T04:49:50.613Z,2.63
2023-02-14T04:52:20.335Z,2.81
2023-02-14T04:54:50.451Z,2.74
2023-02-14T04:57:22.687Z,2.75
2023-02-14T04:59:52.334Z,2.68
2023-02-14T05:02:21.997Z,2.82
2023-02-14T05:04:51.742Z,2.77
2023-02-14T05:07:21.350Z,2.72
2023-02-14T05:09:50.944Z,2.79
2023-02-14T05:12:23.116Z,2.73
2023-02-14T05:14:52.721Z,2.58
2023-02-14T05:17:22.364Z,2.78
2023-02-14T05:19:51.967Z,2.72
2023-02-14T05:22:21.570Z,2.65
2023-02-14T05:24:51.450Z,2.60
2023-02-14T05:27:23.631Z,2.63
2023-02-14T05:29:53.289Z,2.38
2023-02-14T05:32:23.004Z,2.44
2023-02-14T05:34:52.674Z,2.52
2023-02-14T05:37:22.295Z,2.57
2023-02-14T05:39:51.924Z,2.59
2023-02-14T05:42:24.301Z,2.61
2023-02-14T05:44:53.932Z,2.64
2023-02-14T05:47:23.555Z,2.52
2023-02-14T05:49:53.313Z,2.71
2023-02-14T05:52:22.920Z,2.66
2023-02-14T05:54:52.702Z,2.57
2023-02-14T05:57:24.970Z,2.69
2023-02-14T05:59:54.582Z,2.64
2023-02-14T06:02:24.222Z,2.64
2023-02-14T06:04:53.970Z,2.52
2023-02-14T06:07:23.600Z,2.58
2023-02-14T06:09:53.252Z,2.51
2023-02-14T06:12:25.463Z,2.57
2023-02-14T06:14:55.096Z,2.48
2023-02-14T06:17:24.721Z,2.42
2023-02-14T06:19:54.317Z,2.46
2023-02-14T06:22:24.193Z,2.47
2023-02-14T06:24:53.841Z,2.12
2023-02-14T06:27:26.014Z,2.46
2023-02-14T06:29:55.691Z,2.41
2023-02-14T06:32:25.885Z,2.20
2023-02-14T06:34:55.620Z,2.34
2023-02-14T06:37:25.240Z,1.75
2023-02-14T06:39:54.837Z,2.23
2023-02-14T06:42:27.204Z,2.33
2023-02-14T06:44:56.805Z,2.15
2023-02-14T06:47:26.411Z,2.14
2023-02-14T06:49:56.237Z,2.15
2023-02-14T06:52:25.838Z,2.34
2023-02-14T06:54:55.525Z,2.28
2023-02-14T06:57:27.822Z,2.39
2023-02-14T06:59:57.765Z,2.36
2023-02-14T07:02:27.405Z,2.27
2023-02-14T07:04:57.165Z,2.45
2023-02-14T07:07:26.773Z,2.51
2023-02-14T07:09:59.254Z,2.42
2023-02-14T07:12:31.496Z,2.58
2023-02-14T07:15:01.196Z,2.17
2023-02-14T07:17:37.705Z,2.05
2023-02-14T07:20:11.781Z,2.45
2023-02-14T07:22:48.137Z,2.58
2023-02-14T07:25:18.960Z,2.47
2023-02-14T07:28:00.964Z,2.56
2023-02-14T07:30:36.146Z,2.26
2023-02-14T07:33:10.190Z,2.65
2023-02-14T07:35:43.422Z,2.28
2023-02-14T07:44:28.167Z,1.92
2023-02-14T07:46:57.823Z,2.93
2023-02-14T07:49:27.490Z,3.05
2023-02-14T07:51:57.126Z,3.25
2023-02-14T07:54:27.076Z,3.15
2023-02-14T07:56:57.622Z,3.25
2023-02-14T07:59:30.366Z,3.38
2023-02-14T08:02:01.009Z,2.92
2023-02-14T08:04:32.943Z,3.34
2023-02-14T08:07:06.632Z,3.48
2023-02-14T08:09:37.421Z,3.23
2023-02-14T08:12:22.843Z,3.53
2023-02-14T08:15:16.392Z,3.57
2023-02-14T08:17:46.093Z,3.83
2023-02-14T08:20:16.044Z,3.68
2023-02-14T08:22:45.688Z,3.65
2023-02-14T08:25:15.350Z,3.54
2023-02-14T08:27:44.976Z,2.32
2023-02-14T08:30:18.536Z,3.69
2023-02-14T08:32:48.493Z,3.54
2023-02-14T08:35:18.387Z,3.79
2023-02-14T08:37:48.021Z,3.74
2023-02-14T08:40:18.026Z,3.95
2023-02-14T08:42:47.644Z,3.74
2023-02-14T08:45:20.172Z,4.00
2023-02-14T08:48:03.592Z,3.56
2023-02-14T08:54:16.411Z,4.22
2023-02-14T09:04:21.694Z,4.63
2023-02-14T09:20:35.172Z,5.30
2023-02-14T09:23:07.668Z,5.38
2023-02-14T09:25:49.498Z,4.54
2023-02-14T09:28:29.450Z,4.64
2023-02-14T09:31:13.000Z,5.51
2023-02-14T09:33:50.314Z,5.38
2023-02-14T10:30:54.345Z,7.83
2023-02-14T10:34:15.277Z,8.07
2023-02-14T10:37:25.167Z,8.28
2023-02-14T10:40:56.610Z,6.97
2023-02-14T10:44:37.480Z,9.03
2023-02-14T10:53:09.013Z,7.36
2023-02-14T10:57:13.404Z,9.42
2023-02-14T11:00:59.911Z,8.63
2023-02-14T11:06:03.445Z,9.74
2023-02-14T11:17:10.103Z,10.21
2023-02-14T11:23:54.579Z,8.66
2023-02-14T11:26:28.724Z,10.42
2023-02-14T11:29:03.901Z,10.58
2023-02-14T11:31:36.781Z,10.91
2023-02-14T11:34:09.454Z,10.87
2023-02-14T11:36:44.123Z,10.90
2023-02-14T11:39:25.825Z,11.06
2023-02-14T11:41:58.205Z,11.12
2023-02-14T11:44:33.086Z,11.18
2023-02-14T11:47:22.751Z,11.16
2023-02-14T11:50:01.157Z,11.17
2023-02-14T11:52:32.747Z,11.28
2023-02-14T11:55:04.424Z,11.45
2023-02-14T11:57:38.472Z,11.44
2023-02-14T12:00:19.552Z,11.60
2023-02-14T12:02:51.684Z,11.31
2023-02-14T12:05:24.131Z,11.60
2023-02-14T12:07:56.865Z,11.54
2023-02-14T12:10:31.866Z,11.26
2023-02-14T12:13:03.635Z,11.68
2023-02-14T12:15:41.230Z,11.78
2023-02-14T12:18:39.694Z,11.63
2023-02-14T12:21:24.141Z,11.74
2023-02-14T12:24:01.460Z,11.90
2023-02-14T12:26:35.766Z,11.76
2023-02-14T12:29:14.284Z,11.95
2023-02-14T12:31:49.342Z,11.90
2023-02-14T12:34:21.570Z,12.08
2023-02-14T12:37:19.829Z,12.17
2023-02-14T12:40:07.800Z,12.12
2023-02-14T12:42:49.730Z,12.25
2023-02-14T12:45:28.406Z,12.11
2023-02-14T12:48:16.299Z,12.24
2023-02-14T12:50:53.351Z,12.28
2023-02-14T12:53:40.632Z,12.21
2023-02-14T12:56:19.310Z,12.44
2023-02-14T12:59:01.590Z,12.51
2023-02-14T13:01:47.978Z,12.25
2023-02-14T13:04:56.029Z,12.25
2023-02-14T13:07:38.379Z,12.23
2023-02-14T13:10:18.148Z,12.42
2023-02-14T13:12:54.358Z,12.56
2023-02-14T13:15:29.955Z,12.63
2023-02-14T13:18:07.367Z,12.69
2023-02-14T13:20:46.035Z,12.77
2023-02-14T13:23:20.200Z,12.46
2023-02-14T13:25:54.590Z,12.67
2023-02-14T13:28:25.687Z,12.50
2023-02-14T13:30:57.914Z,12.91
2023-02-14T13:33:34.984Z,12.86
2023-02-14T13:36:11.633Z,12.94
2023-02-14T13:38:46.340Z,13.01
2023-02-14T13:41:18.129Z,13.07
2023-02-14T13:43:49.182Z,12.83
2023-02-14T13:46:20.755Z,12.92
2023-02-14T13:49:02.237Z,13.09
2023-02-14T13:51:51.244Z,13.17
2023-02-14T13:54:31.266Z,13.19
2023-02-14T13:57:01.513Z,13.19
2023-02-14T13:59:34.218Z,13.28
2023-02-14T14:02:35.293Z,12.96
2023-02-14T14:05:40.600Z,13.23
2023-02-14T14:08:41.465Z,12.74
2023-02-14T14:11:16.351Z,13.29
2023-02-14T14:14:07.470Z,13.36
2023-02-14T14:16:38.073Z,13.20
2023-02-14T14:19:33.270Z,13.22
2023-02-14T14:22:04.807Z,13.36
2023-02-14T14:24:37.883Z,13.28
2023-02-14T14:27:15.813Z,13.32
2023-02-14T14:29:50.137Z,13.29
2023-02-14T14:32:22.370Z,13.56
2023-02-14T14:34:53.518Z,13.42
2023-02-14T14:37:25.148Z,13.52
2023-02-14T14:39:59.734Z,13.33
2023-02-14T14:42:32.598Z,13.56
2023-02-14T14:45:05.668Z,13.45
2023-02-14T14:47:43.074Z,13.67
2023-02-14T14:50:18.978Z,13.56
2023-02-14T14:52:51.481Z,13.55
2023-02-14T14:55:26.895Z,13.28
2023-02-14T14:57:59.723Z,13.36
2023-02-14T15:00:31.169Z,13.52
2023-02-14T15:03:04.351Z,13.51
2023-02-14T15:05:37.582Z,13.61
2023-02-14T15:08:24.093Z,13.52
2023-02-14T15:11:02.329Z,13.53
2023-02-14T15:13:49.717Z,13.51
2023-02-14T15:16:21.981Z,13.48
2023-02-14T15:18:53.860Z,13.50
2023-02-14T15:21:23.690Z,13.51
2023-02-14T15:23:54.808Z,13.18
2023-02-14T15:26:32.387Z,13.42
2023-02-14T15:29:04.125Z,13.36
2023-02-14T15:31:37.429Z,13.01
2023-02-14T15:34:08.643Z,12.78
2023-02-14T15:36:39.481Z,12.99
2023-02-14T15:39:12.332Z,13.10
2023-02-14T15:41:48.865Z,13.05
2023-02-14T15:44:22.915Z,13.11
2023-02-14T15:46:58.634Z,12.33
2023-02-14T15:49:35.709Z,12.33
2023-02-14T15:52:07.780Z,12.20
2023-02-14T15:54:41.701Z,12.85
2023-02-14T15:57:23.748Z,13.08
2023-02-14T15:59:54.101Z,13.01
2023-02-14T16:02:32.563Z,12.73
2023-02-14T16:05:07.821Z,12.78
2023-02-14T16:07:37.643Z,12.50
2023-02-14T16:10:24.083Z,12.42
2023-02-14T16:13:26.606Z,11.67
2023-02-14T16:16:17.461Z,12.43
2023-02-14T16:19:03.105Z,12.17
2023-02-14T16:25:47.128Z,12.14
2023-02-14T16:35:28.529Z,11.98
2023-02-14T16:38:43.392Z,10.70
2023-02-14T16:41:24.178Z,10.57
2023-02-14T16:48:40.456Z,11.74
2023-02-14T16:55:14.783Z,10.23
2023-02-14T16:58:31.594Z,10.83
2023-02-14T17:01:47.345Z,11.09
2023-02-14T17:05:03.168Z,10.50
2023-02-14T17:07:52.023Z,9.62
2023-02-14T17:10:32.592Z,9.18
2023-02-14T17:13:29.765Z,8.79
2023-02-14T17:16:20.823Z,10.63
2023-02-14T17:19:23.162Z,9.18
2023-02-14T17:22:07.323Z,10.02
2023-02-14T17:24:46.419Z,9.89
2023-02-14T17:27:26.869Z,10.11
2023-02-14T17:30:03.469Z,9.29
2023-02-14T17:32:37.971Z,8.79
2023-02-14T17:35:20.243Z,9.86
2023-02-14T17:38:00.774Z,9.89
2023-02-14T17:40:36.341Z,9.85
2023-02-14T17:43:17.854Z,9.77
2023-02-14T17:45:57.280Z,9.72
2023-02-14T17:48:36.045Z,8.67
2023-02-14T17:51:07.893Z,8.47
2023-02-14T17:53:46.290Z,9.37
2023-02-14T17:56:22.432Z,7.61
2023-02-14T17:58:59.918Z,8.87
2023-02-14T18:01:36.660Z,9.41
2023-02-14T18:04:12.319Z,8.28
2023-02-14T18:07:01.563Z,8.45
2023-02-14T18:09:38.024Z,9.05
2023-02-14T18:12:14.918Z,9.43
2023-02-14T18:15:09.477Z,8.07
2023-02-14T18:17:51.070Z,9.11
2023-02-14T18:20:37.017Z,8.16
2023-02-14T18:23:21.537Z,8.14
2023-02-14T18:25:59.849Z,9.04
2023-02-14T18:28:41.040Z,8.85
2023-02-14T18:31:13.765Z,8.84
2023-02-14T18:33:55.422Z,7.66
2023-02-14T18:36:27.828Z,7.46
2023-02-14T18:38:58.654Z,6.83
2023-02-14T18:41:32.269Z,7.84
2023-02-14T18:44:03.091Z,7.34
2023-02-14T18:46:38.280Z,7.97
2023-02-14T18:49:09.726Z,7.31
2023-02-14T18:51:41.437Z,8.27
2023-02-14T18:54:11.528Z,7.39
2023-02-14T18:56:44.163Z,7.14
2023-02-14T18:59:18.254Z,6.86
2023-02-14T19:01:48.668Z,7.95
2023-02-14T19:04:18.749Z,6.17
2023-02-14T19:06:49.548Z,7.15
2023-02-14T19:09:20.076Z,7.83
2023-02-14T19:11:52.821Z,7.41
2023-02-14T19:14:22.760Z,7.71
2023-02-14T19:16:53.653Z,7.91
2023-02-14T19:19:24.348Z,7.71
2023-02-14T19:22:01.147Z,7.47
2023-02-14T19:24:31.669Z,7.15
2023-02-14T19:27:06.876Z,7.67
2023-02-14T19:29:38.525Z,7.41
2023-02-14T19:32:09.353Z,7.45
2023-02-14T19:34:42.749Z,6.92
2023-02-14T19:37:22.723Z,5.88
2023-02-14T19:39:53.077Z,7.05
2023-02-14T19:42:26.256Z,6.78
2023-02-14T19:44:58.223Z,6.32
2023-02-14T19:47:46.226Z,6.33
2023-02-14T19:50:21.929Z,5.89
2023-02-14T20:01:28.746Z,7.17
2023-02-14T20:04:57.011Z,7.24
2023-02-14T20:11:50.704Z,6.22
2023-02-14T20:15:31.287Z,5.78
2023-02-14T20:20:44.694Z,5.25
2023-02-14T20:35:03.165Z,7.15
2023-02-14T20:38:34.247Z,5.00
2023-02-14T20:41:54.233Z,6.92
2023-02-14T20:45:22.298Z,6.96
2023-02-14T21:06:18.129Z,6.67
2023-02-14T21:09:04.881Z,6.11
2023-02-14T21:17:17.096Z,6.53
